sensor_id;sensor_type;location;lat;lon;timestamp;temperature;humidity
7530;DHT22;3806;52.270;10.544;2022-12-07T00:00:03;4.70;99.90
7530;DHT22;3806;52.270;10.544;2022-12-07T00:02:28;4.70;99.90
7530;DHT22;3806;52.270;10.544;2022-12-07T00:04:54;4.80;99.90
7530;DHT22;3806;52.270;10.544;2022-12-07T00:07:19;4.80;99.90
7530;DHT22;3806;52.270;10.544;2022-12-07T00:09:45;4.90;99.90
7530;DHT22;3806;52.270;10.544;2022-12-07T00:12:11;4.90;99.90
7530;DHT22;3806;52.270;10.544;2022-12-07T00:14:36;4.90;99.90
7530;DHT22;3806;52.270;10.544;2022-12-07T00:17:02;4.90;99.90
7530;DHT22;3806;52.270;10.544;2022-12-07T00:19:27;4.90;99.90
7530;DHT22;3806;52.270;10.544;2022-12-07T00:21:53;4.90;99.90
7530;DHT22;3806;52.270;10.544;2022-12-07T00:24:18;4.90;99.90
7530;DHT22;3806;52.270;10.544;2022-12-07T00:26:44;5.00;99.90
7530;DHT22;3806;52.270;10.544;2022-12-07T00:29:20;4.90;99.90
7530;DHT22;3806;52.270;10.544;2022-12-07T00:31:47;4.90;99.90
7530;DHT22;3806;52.270;10.544;2022-12-07T00:34:16;5.00;99.90
7530;DHT22;3806;52.270;10.544;2022-12-07T00:36:42;5.00;99.90
7530;DHT22;3806;52.270;10.544;2022-12-07T00:39:07;5.00;99.90
7530;DHT22;3806;52.270;10.544;2022-12-07T00:41:34;5.00;99.90
7530;DHT22;3806;52.270;10.544;2022-12-07T00:43:59;5.00;99.90
7530;DHT22;3806;52.270;10.544;2022-12-07T00:46:26;5.00;99.90
7530;DHT22;3806;52.270;10.544;2022-12-07T00:48:52;5.00;99.90
7530;DHT22;3806;52.270;10.544;2022-12-07T00:51:19;5.00;99.90
7530;DHT22;3806;52.270;10.544;2022-12-07T00:53:45;4.90;99.90
7530;DHT22;3806;52.270;10.544;2022-12-07T00:56:13;5.00;99.90
7530;DHT22;3806;52.270;10.544;2022-12-07T00:58:39;5.00;99.90
7530;DHT22;3806;52.270;10.544;2022-12-07T01:01:06;5.00;99.90
7530;DHT22;3806;52.270;10.544;2022-12-07T01:03:32;5.00;99.90
7530;DHT22;3806;52.270;10.544;2022-12-07T01:05:58;5.00;99.90
7530;DHT22;3806;52.270;10.544;2022-12-07T01:08:25;5.00;99.90
7530;DHT22;3806;52.270;10.544;2022-12-07T01:11:07;5.00;99.90
7530;DHT22;3806;52.270;10.544;2022-12-07T01:13:34;5.00;99.90
7530;DHT22;3806;52.270;10.544;2022-12-07T01:16:02;5.00;99.90
7530;DHT22;3806;52.270;10.544;2022-12-07T01:18:29;5.00;99.90
7530;DHT22;3806;52.270;10.544;2022-12-07T01:21:04;5.00;99.90
7530;DHT22;3806;52.270;10.544;2022-12-07T01:23:31;5.00;99.90
7530;DHT22;3806;52.270;10.544;2022-12-07T01:25:59;4.90;99.90
7530;DHT22;3806;52.270;10.544;2022-12-07T01:28:25;5.00;99.90
7530;DHT22;3806;52.270;10.544;2022-12-07T01:30:59;5.00;99.90
7530;DHT22;3806;52.270;10.544;2022-12-07T01:33:31;5.00;99.90
7530;DHT22;3806;52.270;10.544;2022-12-07T01:36:06;5.00;99.90
7530;DHT22;3806;52.270;10.544;2022-12-07T01:38:32;5.00;99.90
7530;DHT22;3806;52.270;10.544;2022-12-07T01:40:59;5.00;99.90
7530;DHT22;3806;52.270;10.544;2022-12-07T01:43:26;5.00;99.90
7530;DHT22;3806;52.270;10.544;2022-12-07T01:45:53;5.00;99.90
7530;DHT22;3806;52.270;10.544;2022-12-07T01:48:24;5.00;99.90
7530;DHT22;3806;52.270;10.544;2022-12-07T01:50:52;5.00;99.90
7530;DHT22;3806;52.270;10.544;2022-12-07T01:53:19;5.00;99.90
7530;DHT22;3806;52.270;10.544;2022-12-07T01:55:48;5.00;99.90
7530;DHT22;3806;52.270;10.544;2022-12-07T01:58:16;5.00;99.90
7530;DHT22;3806;52.270;10.544;2022-12-07T02:00:42;5.00;99.90
7530;DHT22;3806;52.270;10.544;2022-12-07T02:03:50;5.00;99.90
7530;DHT22;3806;52.270;10.544;2022-12-07T02:06:12;4.90;99.90
7530;DHT22;3806;52.270;10.544;2022-12-07T02:08:39;4.90;99.90
7530;DHT22;3806;52.270;10.544;2022-12-07T02:11:05;5.00;99.90
7530;DHT22;3806;52.270;10.544;2022-12-07T02:13:33;5.00;99.90
7530;DHT22;3806;52.270;10.544;2022-12-07T02:21:51;5.10;99.90
7530;DHT22;3806;52.270;10.544;2022-12-07T02:27:40;5.00;99.90
7530;DHT22;3806;52.270;10.544;2022-12-07T02:30:17;5.00;99.90
7530;DHT22;3806;52.270;10.544;2022-12-07T02:35:21;5.10;99.90
7530;DHT22;3806;52.270;10.544;2022-12-07T02:38:09;5.10;99.90
7530;DHT22;3806;52.270;10.544;2022-12-07T02:43:25;5.10;99.90
7530;DHT22;3806;52.270;10.544;2022-12-07T02:46:03;5.10;99.90
7530;DHT22;3806;52.270;10.544;2022-12-07T02:48:31;5.10;99.90
7530;DHT22;3806;52.270;10.544;2022-12-07T02:50:58;5.10;99.90
7530;DHT22;3806;52.270;10.544;2022-12-07T02:55:56;5.10;99.90
7530;DHT22;3806;52.270;10.544;2022-12-07T02:58:49;5.10;99.90
7530;DHT22;3806;52.270;10.544;2022-12-07T03:03:51;5.10;99.90
7530;DHT22;3806;52.270;10.544;2022-12-07T03:06:26;5.20;99.90
7530;DHT22;3806;52.270;10.544;2022-12-07T03:08:56;5.20;99.90
7530;DHT22;3806;52.270;10.544;2022-12-07T03:11:31;5.20;99.90
7530;DHT22;3806;52.270;10.544;2022-12-07T03:14:16;5.20;99.90
7530;DHT22;3806;52.270;10.544;2022-12-07T03:16:48;5.20;99.90
7530;DHT22;3806;52.270;10.544;2022-12-07T03:19:19;5.20;99.90
7530;DHT22;3806;52.270;10.544;2022-12-07T03:21:51;5.30;99.90
7530;DHT22;3806;52.270;10.544;2022-12-07T03:24:21;5.30;99.90
7530;DHT22;3806;52.270;10.544;2022-12-07T03:26:51;5.40;99.90
7530;DHT22;3806;52.270;10.544;2022-12-07T03:29:24;5.30;99.90
7530;DHT22;3806;52.270;10.544;2022-12-07T03:32:05;5.40;99.90
7530;DHT22;3806;52.270;10.544;2022-12-07T03:35:06;5.40;99.90
7530;DHT22;3806;52.270;10.544;2022-12-07T03:42:50;5.40;99.90
7530;DHT22;3806;52.270;10.544;2022-12-07T03:45:17;5.50;99.90
7530;DHT22;3806;52.270;10.544;2022-12-07T03:47:52;5.50;99.90
7530;DHT22;3806;52.270;10.544;2022-12-07T03:50:46;5.50;99.90
7530;DHT22;3806;52.270;10.544;2022-12-07T03:53:22;5.50;99.90
7530;DHT22;3806;52.270;10.544;2022-12-07T03:55:50;5.50;99.90
7530;DHT22;3806;52.270;10.544;2022-12-07T03:58:19;5.50;99.90
7530;DHT22;3806;52.270;10.544;2022-12-07T04:00:47;5.50;99.90
7530;DHT22;3806;52.270;10.544;2022-12-07T04:03:14;5.50;99.90
7530;DHT22;3806;52.270;10.544;2022-12-07T04:05:39;5.40;99.90
7530;DHT22;3806;52.270;10.544;2022-12-07T04:08:06;5.40;99.90
7530;DHT22;3806;52.270;10.544;2022-12-07T04:10:32;5.40;99.90
7530;DHT22;3806;52.270;10.544;2022-12-07T04:12:57;5.40;99.90
7530;DHT22;3806;52.270;10.544;2022-12-07T04:15:23;5.40;99.90
7530;DHT22;3806;52.270;10.544;2022-12-07T04:17:50;5.40;99.90
7530;DHT22;3806;52.270;10.544;2022-12-07T04:20:16;5.50;99.90
7530;DHT22;3806;52.270;10.544;2022-12-07T04:22:42;5.50;99.90
7530;DHT22;3806;52.270;10.544;2022-12-07T04:25:08;5.50;99.90
7530;DHT22;3806;52.270;10.544;2022-12-07T04:27:33;5.50;99.90
7530;DHT22;3806;52.270;10.544;2022-12-07T04:29:59;5.50;99.90
7530;DHT22;3806;52.270;10.544;2022-12-07T04:32:25;5.50;99.90
7530;DHT22;3806;52.270;10.544;2022-12-07T04:34:50;5.50;99.90
7530;DHT22;3806;52.270;10.544;2022-12-07T04:37:17;5.50;99.90
7530;DHT22;3806;52.270;10.544;2022-12-07T04:39:43;5.50;99.90
7530;DHT22;3806;52.270;10.544;2022-12-07T04:42:10;5.50;99.90
7530;DHT22;3806;52.270;10.544;2022-12-07T04:44:37;5.60;99.90
7530;DHT22;3806;52.270;10.544;2022-12-07T04:47:03;5.50;99.90
7530;DHT22;3806;52.270;10.544;2022-12-07T04:49:28;5.50;99.90
7530;DHT22;3806;52.270;10.544;2022-12-07T04:51:54;5.50;99.90
7530;DHT22;3806;52.270;10.544;2022-12-07T04:54:20;5.50;99.90
7530;DHT22;3806;52.270;10.544;2022-12-07T04:56:45;5.50;99.90
7530;DHT22;3806;52.270;10.544;2022-12-07T04:59:12;5.50;99.90
7530;DHT22;3806;52.270;10.544;2022-12-07T05:01:38;5.50;99.90
7530;DHT22;3806;52.270;10.544;2022-12-07T05:04:04;5.50;99.90
7530;DHT22;3806;52.270;10.544;2022-12-07T05:06:29;5.50;99.90
7530;DHT22;3806;52.270;10.544;2022-12-07T05:08:55;5.50;99.90
7530;DHT22;3806;52.270;10.544;2022-12-07T05:11:20;5.50;99.90
7530;DHT22;3806;52.270;10.544;2022-12-07T05:14:08;5.50;99.90
7530;DHT22;3806;52.270;10.544;2022-12-07T05:16:34;5.40;99.90
7530;DHT22;3806;52.270;10.544;2022-12-07T05:19:00;5.50;99.90
7530;DHT22;3806;52.270;10.544;2022-12-07T05:21:25;5.40;99.90
7530;DHT22;3806;52.270;10.544;2022-12-07T05:23:51;5.40;99.90
7530;DHT22;3806;52.270;10.544;2022-12-07T05:26:17;5.50;99.90
7530;DHT22;3806;52.270;10.544;2022-12-07T05:28:43;5.40;99.90
7530;DHT22;3806;52.270;10.544;2022-12-07T05:31:09;5.40;99.90
7530;DHT22;3806;52.270;10.544;2022-12-07T05:33:34;5.40;99.90
7530;DHT22;3806;52.270;10.544;2022-12-07T05:36:00;5.40;99.90
7530;DHT22;3806;52.270;10.544;2022-12-07T05:38:33;5.40;99.90
7530;DHT22;3806;52.270;10.544;2022-12-07T05:41:01;5.30;99.90
7530;DHT22;3806;52.270;10.544;2022-12-07T05:43:27;5.30;99.90
7530;DHT22;3806;52.270;10.544;2022-12-07T05:45:53;5.30;99.90
7530;DHT22;3806;52.270;10.544;2022-12-07T05:48:19;5.30;99.90
7530;DHT22;3806;52.270;10.544;2022-12-07T05:50:47;5.30;99.90
7530;DHT22;3806;52.270;10.544;2022-12-07T05:53:13;5.30;99.90
7530;DHT22;3806;52.270;10.544;2022-12-07T05:55:38;5.30;99.90
7530;DHT22;3806;52.270;10.544;2022-12-07T05:58:04;5.20;99.90
7530;DHT22;3806;52.270;10.544;2022-12-07T06:00:48;5.30;99.90
7530;DHT22;3806;52.270;10.544;2022-12-07T06:03:14;5.30;99.90
7530;DHT22;3806;52.270;10.544;2022-12-07T06:05:39;5.30;99.90
7530;DHT22;3806;52.270;10.544;2022-12-07T06:08:05;5.30;99.90
7530;DHT22;3806;52.270;10.544;2022-12-07T06:10:30;5.30;99.90
7530;DHT22;3806;52.270;10.544;2022-12-07T06:12:56;5.40;99.90
7530;DHT22;3806;52.270;10.544;2022-12-07T06:15:22;5.40;99.90
7530;DHT22;3806;52.270;10.544;2022-12-07T06:17:48;5.40;99.90
7530;DHT22;3806;52.270;10.544;2022-12-07T06:20:14;5.40;99.90
7530;DHT22;3806;52.270;10.544;2022-12-07T06:22:39;5.40;99.90
7530;DHT22;3806;52.270;10.544;2022-12-07T06:25:05;5.40;99.90
7530;DHT22;3806;52.270;10.544;2022-12-07T06:27:32;5.40;99.90
7530;DHT22;3806;52.270;10.544;2022-12-07T06:29:59;5.40;99.90
7530;DHT22;3806;52.270;10.544;2022-12-07T06:32:25;5.30;99.90
7530;DHT22;3806;52.270;10.544;2022-12-07T06:34:50;5.30;99.90
7530;DHT22;3806;52.270;10.544;2022-12-07T06:37:16;5.30;99.90
7530;DHT22;3806;52.270;10.544;2022-12-07T06:39:42;5.20;99.90
7530;DHT22;3806;52.270;10.544;2022-12-07T06:42:07;5.20;99.90
7530;DHT22;3806;52.270;10.544;2022-12-07T06:44:33;5.20;99.90
7530;DHT22;3806;52.270;10.544;2022-12-07T06:46:59;5.00;99.90
7530;DHT22;3806;52.270;10.544;2022-12-07T06:49:24;5.00;99.90
7530;DHT22;3806;52.270;10.544;2022-12-07T06:51:50;5.00;99.90
7530;DHT22;3806;52.270;10.544;2022-12-07T06:54:17;4.90;99.90
7530;DHT22;3806;52.270;10.544;2022-12-07T06:56:42;5.00;99.90
7530;DHT22;3806;52.270;10.544;2022-12-07T06:59:08;5.00;99.90
7530;DHT22;3806;52.270;10.544;2022-12-07T07:01:35;5.00;99.90
7530;DHT22;3806;52.270;10.544;2022-12-07T07:04:01;5.10;99.90
7530;DHT22;3806;52.270;10.544;2022-12-07T07:06:27;5.10;99.90
7530;DHT22;3806;52.270;10.544;2022-12-07T07:08:52;5.20;99.90
7530;DHT22;3806;52.270;10.544;2022-12-07T07:11:19;5.20;99.90
7530;DHT22;3806;52.270;10.544;2022-12-07T07:13:45;5.20;99.90
7530;DHT22;3806;52.270;10.544;2022-12-07T07:16:11;5.30;99.90
7530;DHT22;3806;52.270;10.544;2022-12-07T07:18:36;5.30;99.90
7530;DHT22;3806;52.270;10.544;2022-12-07T07:21:02;5.30;99.90
7530;DHT22;3806;52.270;10.544;2022-12-07T07:23:28;5.40;99.90
7530;DHT22;3806;52.270;10.544;2022-12-07T07:25:54;5.40;99.90
7530;DHT22;3806;52.270;10.544;2022-12-07T07:28:20;5.40;99.90
7530;DHT22;3806;52.270;10.544;2022-12-07T07:30:46;5.40;99.90
7530;DHT22;3806;52.270;10.544;2022-12-07T07:33:12;5.40;99.90
7530;DHT22;3806;52.270;10.544;2022-12-07T07:35:38;5.40;99.90
7530;DHT22;3806;52.270;10.544;2022-12-07T07:38:05;5.40;99.90
7530;DHT22;3806;52.270;10.544;2022-12-07T07:40:31;5.40;99.90
7530;DHT22;3806;52.270;10.544;2022-12-07T07:42:57;5.40;99.90
7530;DHT22;3806;52.270;10.544;2022-12-07T07:45:25;5.40;99.90
7530;DHT22;3806;52.270;10.544;2022-12-07T07:47:50;5.40;99.90
7530;DHT22;3806;52.270;10.544;2022-12-07T07:50:17;5.50;99.90
7530;DHT22;3806;52.270;10.544;2022-12-07T07:52:43;5.40;99.90
7530;DHT22;3806;52.270;10.544;2022-12-07T07:55:09;5.40;99.90
7530;DHT22;3806;52.270;10.544;2022-12-07T07:57:35;5.40;99.90
7530;DHT22;3806;52.270;10.544;2022-12-07T08:00:04;5.50;99.90
7530;DHT22;3806;52.270;10.544;2022-12-07T08:02:30;5.40;99.90
7530;DHT22;3806;52.270;10.544;2022-12-07T08:04:56;5.50;99.90
7530;DHT22;3806;52.270;10.544;2022-12-07T08:07:22;5.50;99.90
7530;DHT22;3806;52.270;10.544;2022-12-07T08:09:47;5.50;99.90
7530;DHT22;3806;52.270;10.544;2022-12-07T08:12:13;5.50;99.90
7530;DHT22;3806;52.270;10.544;2022-12-07T08:14:38;5.50;99.90
7530;DHT22;3806;52.270;10.544;2022-12-07T08:17:04;5.50;99.90
7530;DHT22;3806;52.270;10.544;2022-12-07T08:19:29;5.50;99.90
7530;DHT22;3806;52.270;10.544;2022-12-07T08:21:55;5.40;99.90
7530;DHT22;3806;52.270;10.544;2022-12-07T08:24:21;5.40;99.90
7530;DHT22;3806;52.270;10.544;2022-12-07T08:26:47;5.40;99.90
7530;DHT22;3806;52.270;10.544;2022-12-07T08:29:13;5.50;99.90
7530;DHT22;3806;52.270;10.544;2022-12-07T08:31:39;5.60;99.90
7530;DHT22;3806;52.270;10.544;2022-12-07T08:34:05;5.60;99.90
7530;DHT22;3806;52.270;10.544;2022-12-07T08:36:30;5.60;99.90
7530;DHT22;3806;52.270;10.544;2022-12-07T08:38:56;5.60;99.90
7530;DHT22;3806;52.270;10.544;2022-12-07T08:41:21;5.70;99.90
7530;DHT22;3806;52.270;10.544;2022-12-07T08:43:47;5.70;99.90
7530;DHT22;3806;52.270;10.544;2022-12-07T08:46:19;5.70;99.90
7530;DHT22;3806;52.270;10.544;2022-12-07T08:48:58;5.80;99.90
7530;DHT22;3806;52.270;10.544;2022-12-07T08:51:27;5.80;99.90
7530;DHT22;3806;52.270;10.544;2022-12-07T08:53:54;5.80;99.90
7530;DHT22;3806;52.270;10.544;2022-12-07T08:56:21;5.70;99.90
7530;DHT22;3806;52.270;10.544;2022-12-07T08:58:47;5.80;99.90
7530;DHT22;3806;52.270;10.544;2022-12-07T09:01:13;5.70;99.90
7530;DHT22;3806;52.270;10.544;2022-12-07T09:03:39;5.70;99.90
7530;DHT22;3806;52.270;10.544;2022-12-07T09:06:05;5.70;99.90
7530;DHT22;3806;52.270;10.544;2022-12-07T09:08:37;5.70;99.90
7530;DHT22;3806;52.270;10.544;2022-12-07T09:11:04;5.70;99.90
7530;DHT22;3806;52.270;10.544;2022-12-07T09:13:30;5.70;99.90
7530;DHT22;3806;52.270;10.544;2022-12-07T09:15:56;5.70;99.90
7530;DHT22;3806;52.270;10.544;2022-12-07T09:18:21;5.70;99.90
7530;DHT22;3806;52.270;10.544;2022-12-07T09:20:47;5.70;99.90
7530;DHT22;3806;52.270;10.544;2022-12-07T09:23:12;5.70;99.90
7530;DHT22;3806;52.270;10.544;2022-12-07T09:25:38;5.70;99.90
7530;DHT22;3806;52.270;10.544;2022-12-07T09:28:04;5.70;99.90
7530;DHT22;3806;52.270;10.544;2022-12-07T09:30:29;5.70;99.90
7530;DHT22;3806;52.270;10.544;2022-12-07T09:32:56;5.80;99.90
7530;DHT22;3806;52.270;10.544;2022-12-07T09:35:22;5.80;99.90
7530;DHT22;3806;52.270;10.544;2022-12-07T09:37:48;5.70;99.90
7530;DHT22;3806;52.270;10.544;2022-12-07T09:40:17;5.80;99.90
7530;DHT22;3806;52.270;10.544;2022-12-07T09:42:47;5.80;99.90
7530;DHT22;3806;52.270;10.544;2022-12-07T09:45:34;5.90;99.90
7530;DHT22;3806;52.270;10.544;2022-12-07T09:48:02;5.90;99.90
7530;DHT22;3806;52.270;10.544;2022-12-07T09:50:28;6.00;99.90
7530;DHT22;3806;52.270;10.544;2022-12-07T09:53:03;6.00;99.90
7530;DHT22;3806;52.270;10.544;2022-12-07T09:55:31;6.10;99.90
7530;DHT22;3806;52.270;10.544;2022-12-07T09:57:58;6.10;99.90
7530;DHT22;3806;52.270;10.544;2022-12-07T10:00:24;6.20;99.90
7530;DHT22;3806;52.270;10.544;2022-12-07T10:02:56;6.20;99.90
7530;DHT22;3806;52.270;10.544;2022-12-07T10:05:35;6.10;99.90
7530;DHT22;3806;52.270;10.544;2022-12-07T10:08:02;6.10;99.90
7530;DHT22;3806;52.270;10.544;2022-12-07T10:10:33;6.10;99.90
7530;DHT22;3806;52.270;10.544;2022-12-07T10:15:43;6.00;99.90
7530;DHT22;3806;52.270;10.544;2022-12-07T10:21:24;6.00;99.90
7530;DHT22;3806;52.270;10.544;2022-12-07T10:24:14;6.00;99.90
7530;DHT22;3806;52.270;10.544;2022-12-07T10:26:51;6.00;99.90
7530;DHT22;3806;52.270;10.544;2022-12-07T10:29:24;6.00;99.90
7530;DHT22;3806;52.270;10.544;2022-12-07T10:32:02;6.00;99.90
7530;DHT22;3806;52.270;10.544;2022-12-07T10:34:33;6.10;99.90
7530;DHT22;3806;52.270;10.544;2022-12-07T10:42:17;6.00;99.90
7530;DHT22;3806;52.270;10.544;2022-12-07T10:44:43;6.10;99.90
7530;DHT22;3806;52.270;10.544;2022-12-07T10:47:36;6.10;99.90
7530;DHT22;3806;52.270;10.544;2022-12-07T10:56:21;6.30;99.90
7530;DHT22;3806;52.270;10.544;2022-12-07T11:06:27;6.20;99.90
7530;DHT22;3806;52.270;10.544;2022-12-07T11:12:02;6.20;99.90
7530;DHT22;3806;52.270;10.544;2022-12-07T11:14:44;6.20;99.90
7530;DHT22;3806;52.270;10.544;2022-12-07T11:17:17;6.30;99.90
7530;DHT22;3806;52.270;10.544;2022-12-07T11:20:00;6.30;99.90
7530;DHT22;3806;52.270;10.544;2022-12-07T11:28:03;6.40;99.90
7530;DHT22;3806;52.270;10.544;2022-12-07T11:30:47;6.40;99.90
7530;DHT22;3806;52.270;10.544;2022-12-07T11:38:46;6.40;99.90
7530;DHT22;3806;52.270;10.544;2022-12-07T11:41:13;6.50;99.90
7530;DHT22;3806;52.270;10.544;2022-12-07T11:44:23;6.40;99.90
7530;DHT22;3806;52.270;10.544;2022-12-07T11:47:10;6.40;99.90
7530;DHT22;3806;52.270;10.544;2022-12-07T11:52:05;6.60;99.90
7530;DHT22;3806;52.270;10.544;2022-12-07T11:54:41;6.70;99.90
7530;DHT22;3806;52.270;10.544;2022-12-07T11:57:26;6.80;99.90
7530;DHT22;3806;52.270;10.544;2022-12-07T11:59:59;6.90;99.90
7530;DHT22;3806;52.270;10.544;2022-12-07T12:02:32;6.90;99.90
7530;DHT22;3806;52.270;10.544;2022-12-07T12:05:12;6.90;99.90
7530;DHT22;3806;52.270;10.544;2022-12-07T12:07:39;6.80;99.90
7530;DHT22;3806;52.270;10.544;2022-12-07T12:10:18;6.80;99.90
7530;DHT22;3806;52.270;10.544;2022-12-07T12:21:14;6.80;99.90
7530;DHT22;3806;52.270;10.544;2022-12-07T12:23:54;6.70;99.90
7530;DHT22;3806;52.270;10.544;2022-12-07T12:26:24;6.70;99.90
7530;DHT22;3806;52.270;10.544;2022-12-07T12:28:59;6.60;99.90
7530;DHT22;3806;52.270;10.544;2022-12-07T12:31:36;6.50;99.90
7530;DHT22;3806;52.270;10.544;2022-12-07T12:34:38;6.50;99.90
7530;DHT22;3806;52.270;10.544;2022-12-07T12:42:53;6.30;99.90
7530;DHT22;3806;52.270;10.544;2022-12-07T12:45:28;6.30;99.90
7530;DHT22;3806;52.270;10.544;2022-12-07T12:50:23;6.30;99.90
7530;DHT22;3806;52.270;10.544;2022-12-07T12:55:29;6.30;99.90
7530;DHT22;3806;52.270;10.544;2022-12-07T13:01:30;6.40;99.90
7530;DHT22;3806;52.270;10.544;2022-12-07T13:03:34;6.40;99.90
7530;DHT22;3806;52.270;10.544;2022-12-07T13:06:31;6.40;99.90
7530;DHT22;3806;52.270;10.544;2022-12-07T13:08:59;6.50;99.90
7530;DHT22;3806;52.270;10.544;2022-12-07T13:11:33;6.50;99.90
7530;DHT22;3806;52.270;10.544;2022-12-07T13:15:03;6.50;99.90
7530;DHT22;3806;52.270;10.544;2022-12-07T13:17:08;6.50;99.90
7530;DHT22;3806;52.270;10.544;2022-12-07T13:25:18;6.50;99.90
7530;DHT22;3806;52.270;10.544;2022-12-07T13:27:54;6.40;99.90
7530;DHT22;3806;52.270;10.544;2022-12-07T13:30:21;6.40;99.90
7530;DHT22;3806;52.270;10.544;2022-12-07T13:32:56;6.30;99.90
7530;DHT22;3806;52.270;10.544;2022-12-07T13:35:34;6.30;99.90
7530;DHT22;3806;52.270;10.544;2022-12-07T13:38:37;6.30;99.90
7530;DHT22;3806;52.270;10.544;2022-12-07T13:41:18;6.20;99.90
7530;DHT22;3806;52.270;10.544;2022-12-07T13:44:01;6.20;99.90
7530;DHT22;3806;52.270;10.544;2022-12-07T13:46:44;6.20;99.90
7530;DHT22;3806;52.270;10.544;2022-12-07T13:49:19;6.20;99.90
7530;DHT22;3806;52.270;10.544;2022-12-07T13:51:46;6.10;99.90
7530;DHT22;3806;52.270;10.544;2022-12-07T13:54:13;6.20;99.90
7530;DHT22;3806;52.270;10.544;2022-12-07T13:56:39;6.20;99.90
7530;DHT22;3806;52.270;10.544;2022-12-07T13:59:14;6.20;99.90
7530;DHT22;3806;52.270;10.544;2022-12-07T14:01:41;6.20;99.90
7530;DHT22;3806;52.270;10.544;2022-12-07T14:06:56;6.20;99.90
7530;DHT22;3806;52.270;10.544;2022-12-07T14:09:23;6.20;99.90
7530;DHT22;3806;52.270;10.544;2022-12-07T14:11:51;6.10;99.90
7530;DHT22;3806;52.270;10.544;2022-12-07T14:14:26;6.10;99.90
7530;DHT22;3806;52.270;10.544;2022-12-07T14:17:15;6.00;99.90
7530;DHT22;3806;52.270;10.544;2022-12-07T14:22:34;6.00;99.90
7530;DHT22;3806;52.270;10.544;2022-12-07T14:25:21;6.00;99.90
7530;DHT22;3806;52.270;10.544;2022-12-07T14:27:51;6.00;99.90
7530;DHT22;3806;52.270;10.544;2022-12-07T14:30:20;6.00;99.90
7530;DHT22;3806;52.270;10.544;2022-12-07T14:32:50;5.90;99.90
7530;DHT22;3806;52.270;10.544;2022-12-07T14:35:18;6.00;99.90
7530;DHT22;3806;52.270;10.544;2022-12-07T14:37:46;5.90;99.90
7530;DHT22;3806;52.270;10.544;2022-12-07T14:40:23;6.00;99.90
7530;DHT22;3806;52.270;10.544;2022-12-07T14:42:55;5.90;99.90
7530;DHT22;3806;52.270;10.544;2022-12-07T14:45:22;5.90;99.90
7530;DHT22;3806;52.270;10.544;2022-12-07T14:47:48;5.90;99.90
7530;DHT22;3806;52.270;10.544;2022-12-07T14:50:16;5.90;99.90
7530;DHT22;3806;52.270;10.544;2022-12-07T14:52:48;5.90;99.90
7530;DHT22;3806;52.270;10.544;2022-12-07T14:55:26;5.90;99.90
7530;DHT22;3806;52.270;10.544;2022-12-07T14:57:52;5.90;99.90
7530;DHT22;3806;52.270;10.544;2022-12-07T15:00:18;5.90;99.90
7530;DHT22;3806;52.270;10.544;2022-12-07T15:02:46;5.90;99.90
7530;DHT22;3806;52.270;10.544;2022-12-07T15:05:12;5.90;99.90
7530;DHT22;3806;52.270;10.544;2022-12-07T15:07:39;5.90;99.90
7530;DHT22;3806;52.270;10.544;2022-12-07T15:10:05;5.90;99.90
7530;DHT22;3806;52.270;10.544;2022-12-07T15:12:31;6.00;99.90
7530;DHT22;3806;52.270;10.544;2022-12-07T15:14:56;6.00;99.90
7530;DHT22;3806;52.270;10.544;2022-12-07T15:17:22;6.00;99.90
7530;DHT22;3806;52.270;10.544;2022-12-07T15:19:48;6.00;99.90
7530;DHT22;3806;52.270;10.544;2022-12-07T15:22:13;5.90;99.90
7530;DHT22;3806;52.270;10.544;2022-12-07T15:24:39;5.90;99.90
7530;DHT22;3806;52.270;10.544;2022-12-07T15:27:04;5.90;99.90
7530;DHT22;3806;52.270;10.544;2022-12-07T15:29:30;5.90;99.90
7530;DHT22;3806;52.270;10.544;2022-12-07T15:31:56;5.80;99.90
7530;DHT22;3806;52.270;10.544;2022-12-07T15:34:22;5.80;99.90
7530;DHT22;3806;52.270;10.544;2022-12-07T15:36:48;5.80;99.90
7530;DHT22;3806;52.270;10.544;2022-12-07T15:39:14;5.80;99.90
7530;DHT22;3806;52.270;10.544;2022-12-07T15:41:39;5.80;99.90
7530;DHT22;3806;52.270;10.544;2022-12-07T15:44:05;5.80;99.90
7530;DHT22;3806;52.270;10.544;2022-12-07T15:46:49;5.80;99.90
7530;DHT22;3806;52.270;10.544;2022-12-07T15:49:17;5.80;99.90
7530;DHT22;3806;52.270;10.544;2022-12-07T15:51:43;5.80;99.90
7530;DHT22;3806;52.270;10.544;2022-12-07T15:54:18;5.80;99.90
7530;DHT22;3806;52.270;10.544;2022-12-07T15:56:43;5.80;99.90
7530;DHT22;3806;52.270;10.544;2022-12-07T15:59:09;5.80;99.90
7530;DHT22;3806;52.270;10.544;2022-12-07T16:01:35;5.80;99.90
7530;DHT22;3806;52.270;10.544;2022-12-07T16:04:00;5.80;99.90
7530;DHT22;3806;52.270;10.544;2022-12-07T16:06:26;5.80;99.90
7530;DHT22;3806;52.270;10.544;2022-12-07T16:08:52;5.90;99.90
7530;DHT22;3806;52.270;10.544;2022-12-07T16:11:18;5.90;99.90
7530;DHT22;3806;52.270;10.544;2022-12-07T16:13:43;5.80;99.90
7530;DHT22;3806;52.270;10.544;2022-12-07T16:16:14;5.80;99.90
7530;DHT22;3806;52.270;10.544;2022-12-07T16:18:42;5.70;99.90
7530;DHT22;3806;52.270;10.544;2022-12-07T16:21:08;5.60;99.90
7530;DHT22;3806;52.270;10.544;2022-12-07T16:23:34;5.50;99.90
7530;DHT22;3806;52.270;10.544;2022-12-07T16:26:16;5.40;99.90
7530;DHT22;3806;52.270;10.544;2022-12-07T16:28:42;5.30;99.90
7530;DHT22;3806;52.270;10.544;2022-12-07T16:31:13;5.20;99.90
7530;DHT22;3806;52.270;10.544;2022-12-07T16:33:41;5.10;99.90
7530;DHT22;3806;52.270;10.544;2022-12-07T16:36:08;5.10;99.90
7530;DHT22;3806;52.270;10.544;2022-12-07T16:38:35;5.00;99.90
7530;DHT22;3806;52.270;10.544;2022-12-07T16:41:00;4.90;99.90
7530;DHT22;3806;52.270;10.544;2022-12-07T16:43:26;4.90;99.90
7530;DHT22;3806;52.270;10.544;2022-12-07T16:45:52;4.80;99.90
7530;DHT22;3806;52.270;10.544;2022-12-07T16:48:18;4.80;99.90
7530;DHT22;3806;52.270;10.544;2022-12-07T16:50:44;4.80;99.90
7530;DHT22;3806;52.270;10.544;2022-12-07T16:53:11;4.80;99.90
7530;DHT22;3806;52.270;10.544;2022-12-07T16:55:39;4.80;99.90
7530;DHT22;3806;52.270;10.544;2022-12-07T16:58:06;4.80;99.90
7530;DHT22;3806;52.270;10.544;2022-12-07T17:00:32;4.80;99.90
7530;DHT22;3806;52.270;10.544;2022-12-07T17:02:58;4.80;99.90
7530;DHT22;3806;52.270;10.544;2022-12-07T17:05:24;4.80;99.90
7530;DHT22;3806;52.270;10.544;2022-12-07T17:07:50;4.80;99.90
7530;DHT22;3806;52.270;10.544;2022-12-07T17:10:16;4.80;99.90
7530;DHT22;3806;52.270;10.544;2022-12-07T17:12:42;4.80;99.90
7530;DHT22;3806;52.270;10.544;2022-12-07T17:15:08;4.90;99.90
7530;DHT22;3806;52.270;10.544;2022-12-07T17:17:52;4.80;99.90
7530;DHT22;3806;52.270;10.544;2022-12-07T17:20:18;4.80;99.90
7530;DHT22;3806;52.270;10.544;2022-12-07T17:22:45;4.80;99.90
7530;DHT22;3806;52.270;10.544;2022-12-07T17:25:10;4.90;99.90
7530;DHT22;3806;52.270;10.544;2022-12-07T17:27:36;4.90;99.90
7530;DHT22;3806;52.270;10.544;2022-12-07T17:30:04;4.90;99.90
7530;DHT22;3806;52.270;10.544;2022-12-07T17:32:30;4.90;99.90
7530;DHT22;3806;52.270;10.544;2022-12-07T17:34:55;4.80;99.90
7530;DHT22;3806;52.270;10.544;2022-12-07T17:37:21;4.80;99.90
7530;DHT22;3806;52.270;10.544;2022-12-07T17:39:46;4.80;99.90
7530;DHT22;3806;52.270;10.544;2022-12-07T17:42:12;4.80;99.90
7530;DHT22;3806;52.270;10.544;2022-12-07T17:45:13;4.80;99.90
7530;DHT22;3806;52.270;10.544;2022-12-07T17:47:39;4.80;99.90
7530;DHT22;3806;52.270;10.544;2022-12-07T17:50:06;4.80;99.90
7530;DHT22;3806;52.270;10.544;2022-12-07T17:52:33;4.80;99.90
7530;DHT22;3806;52.270;10.544;2022-12-07T17:55:20;4.80;99.90